Port Imperial New Jersey — WBR3133 — position and weather

sailwx.info

Track history (hours):
 
Tides and Currents Weather Stations Pressure Air Temp Water Temp Dewpoint Dewpoint Depression Visibility Wind Speed Wind Dir Waves Ship Positions

Port Imperial New Jersey

Owner: PORT IMPERIAL FERRY CORP, WEEHAWKEN, NJ. More information available from US FCC via Universal Licensing System and Coast Guard Vessel Documentation Center.

Last reported at 2017-Mar-28 00:18 UTC. Time now 2017-Mar-28 13:52 UTC.
Position N 40°46' W 074°01'.

Length 31 m.

Type: Passenger vessel. MMSI: 366990550.

Date/timePositionNaut miles runAvg speedWind from/ knotsBaromVisibWave heightAir tempDewpointWater temp
2017-Mar-28 00:18N 40°46' W 074°01'1 1.2
2017-Mar-27 23:33N 40°45' W 074°01'0 0.3
2017-Mar-27 22:34N 40°46' W 074°01'0 0.2
2017-Mar-27 21:33N 40°45' W 074°01'0 0.1
2017-Mar-27 20:33N 40°45' W 074°01'1 0.2
2017-Mar-27 14:17N 40°47' W 074°01'1 1.6
2017-Mar-27 13:33N 40°45' W 074°01'0 0.2
2017-Mar-27 12:33N 40°45' W 074°01'0 0.2
2017-Mar-27 11:34N 40°45' W 074°01'1 0.0
2017-Mar-26 17:17N 40°46' W 074°01'0 0.1
2017-Mar-26 16:33N 40°46' W 074°01'0 0.0
2017-Mar-26 15:33N 40°46' W 074°01'0 0.0
2017-Mar-26 14:33N 40°46' W 074°01'0 0.0
2017-Mar-24 20:12N 40°46' W 074°01'0 0.0
2017-Mar-24 19:33N 40°46' W 074°01'0 0.0
2017-Mar-24 18:33N 40°46' W 074°01'0 0.0
2017-Mar-24 17:33N 40°46' W 074°01'0 0.0
2017-Mar-24 16:33N 40°46' W 074°01'0 0.0
2017-Mar-24 15:33N 40°46' W 074°01'0 0.0
2017-Mar-24 14:33N 40°46' W 074°01'0 0.0
2017-Mar-23 03:34N 40°46' W 074°01'0 0.0
2017-Mar-23 02:33N 40°46' W 074°01'0 0.0
2017-Mar-22 20:33N 40°46' W 074°01'0 0.0
2017-Mar-22 14:20N 40°46' W 074°01'1 1.2
2017-Mar-22 13:33N 40°45' W 074°01'0 0.3
2017-Mar-22 12:33N 40°46' W 074°01'0 0.1
2017-Mar-22 11:33N 40°46' W 074°01'1 0.7
2017-Mar-22 10:33N 40°46' W 074°01'0 0.0
2017-Mar-22 09:33N 40°46' W 074°01'0 0.0
2017-Mar-22 08:33N 40°46' W 074°01'1 0.1
2017-Mar-21 22:34N 40°45' W 074°01'0 0.2
2017-Mar-21 21:33N 40°46' W 074°01'0 0.1
2017-Mar-21 20:33N 40°45' W 074°01'1 0.9
2017-Mar-21 19:34N 40°46' W 074°01'0 0.0
2017-Mar-21 14:16N 40°46' W 074°01'1 1.3
2017-Mar-21 13:33N 40°45' W 074°01'0 0.1
2017-Mar-21 12:33N 40°45' W 074°01'0 0.3
2017-Mar-21 11:33N 40°45' W 074°01'1 1.1
2017-Mar-21 10:33N 40°47' W 074°01'0 0.0
2017-Mar-21 00:08N 40°47' W 074°01'1 2.0
2017-Mar-20 23:33N 40°45' W 074°01'0 0.4
2017-Mar-20 22:33N 40°45' W 074°01'0 0.1
2017-Mar-20 21:33N 40°45' W 074°01'0 0.4
2017-Mar-20 20:34N 40°46' W 074°01'1 0.2
2017-Mar-20 17:20N 40°46' W 074°01'3 4.5
2017-Mar-20 16:34N 40°43' W 074°02'0 0.0
2017-Mar-20 15:34N 40°43' W 074°02'1 0.5
2017-Mar-20 14:33N 40°43' W 074°01'2 2.2
2017-Mar-20 13:34N 40°45' W 074°01'0 0.1
2017-Mar-20 12:33N 40°45' W 074°01'0 0.1
2017-Mar-20 11:33N 40°45' W 074°01'1 0.0
2017-Mar-18 14:08N 40°46' W 074°01'  
Track history (hours):
 
Tides and Currents Weather Stations Pressure Air Temp Water Temp Dewpoint Dewpoint Depression Visibility Wind Speed Wind Dir Waves Ship Positions

Port Imperial New Jersey

Owner: PORT IMPERIAL FERRY CORP, WEEHAWKEN, NJ. More information available from US FCC via Universal Licensing System and Coast Guard Vessel Documentation Center.

Last reported at 2017-Mar-28 00:18 UTC. Time now 2017-Mar-28 13:52 UTC.
Position N 40°46' W 074°01'.

Length 31 m.

Type: Passenger vessel. MMSI: 366990550.

Date/timePositionNaut miles runAvg speedWind from/ knotsBaromVisibWave heightAir tempDewpointWater temp
2017-Mar-28 00:18N 40°46' W 074°01'1 1.2
2017-Mar-27 23:33N 40°45' W 074°01'0 0.3
2017-Mar-27 22:34N 40°46' W 074°01'0 0.2
2017-Mar-27 21:33N 40°45' W 074°01'0 0.1
2017-Mar-27 20:33N 40°45' W 074°01'1 0.2
2017-Mar-27 14:17N 40°47' W 074°01'1 1.6
2017-Mar-27 13:33N 40°45' W 074°01'0 0.2
2017-Mar-27 12:33N 40°45' W 074°01'0 0.2
2017-Mar-27 11:34N 40°45' W 074°01'1 0.0
2017-Mar-26 17:17N 40°46' W 074°01'0 0.1
2017-Mar-26 16:33N 40°46' W 074°01'0 0.0
2017-Mar-26 15:33N 40°46' W 074°01'0 0.0
2017-Mar-26 14:33N 40°46' W 074°01'0 0.0
2017-Mar-24 20:12N 40°46' W 074°01'0 0.0
2017-Mar-24 19:33N 40°46' W 074°01'0 0.0
2017-Mar-24 18:33N 40°46' W 074°01'0 0.0
2017-Mar-24 17:33N 40°46' W 074°01'0 0.0
2017-Mar-24 16:33N 40°46' W 074°01'0 0.0
2017-Mar-24 15:33N 40°46' W 074°01'0 0.0
2017-Mar-24 14:33N 40°46' W 074°01'0 0.0
2017-Mar-23 03:34N 40°46' W 074°01'0 0.0
2017-Mar-23 02:33N 40°46' W 074°01'0 0.0
2017-Mar-22 20:33N 40°46' W 074°01'0 0.0
2017-Mar-22 14:20N 40°46' W 074°01'1 1.2
2017-Mar-22 13:33N 40°45' W 074°01'0 0.3
2017-Mar-22 12:33N 40°46' W 074°01'0 0.1
2017-Mar-22 11:33N 40°46' W 074°01'1 0.7
2017-Mar-22 10:33N 40°46' W 074°01'0 0.0
2017-Mar-22 09:33N 40°46' W 074°01'0 0.0
2017-Mar-22 08:33N 40°46' W 074°01'1 0.1
2017-Mar-21 22:34N 40°45' W 074°01'0 0.2
2017-Mar-21 21:33N 40°46' W 074°01'0 0.1
2017-Mar-21 20:33N 40°45' W 074°01'1 0.9
2017-Mar-21 19:34N 40°46' W 074°01'0 0.0
2017-Mar-21 14:16N 40°46' W 074°01'1 1.3
2017-Mar-21 13:33N 40°45' W 074°01'0 0.1
2017-Mar-21 12:33N 40°45' W 074°01'0 0.3
2017-Mar-21 11:33N 40°45' W 074°01'1 1.1
2017-Mar-21 10:33N 40°47' W 074°01'0 0.0
2017-Mar-21 00:08N 40°47' W 074°01'1 2.0
2017-Mar-20 23:33N 40°45' W 074°01'0 0.4
2017-Mar-20 22:33N 40°45' W 074°01'0 0.1
2017-Mar-20 21:33N 40°45' W 074°01'0 0.4
2017-Mar-20 20:34N 40°46' W 074°01'1 0.2
2017-Mar-20 17:20N 40°46' W 074°01'3 4.5
2017-Mar-20 16:34N 40°43' W 074°02'0 0.0
2017-Mar-20 15:34N 40°43' W 074°02'1 0.5
2017-Mar-20 14:33N 40°43' W 074°01'2 2.2
2017-Mar-20 13:34N 40°45' W 074°01'0 0.1
2017-Mar-20 12:33N 40°45' W 074°01'0 0.1
2017-Mar-20 11:33N 40°45' W 074°01'1 0.0
2017-Mar-18 14:08N 40°46' W 074°01'  

Dump ship's entire track history